sensor_id;sensor_type;location;lat;lon;timestamp;P1;durP1;ratioP1;P2;durP2;ratioP2
60314;SDS011;46159;42.550;21.904;2023-12-20T00:01:35;268.48;;;175.90;;
60314;SDS011;46159;42.550;21.904;2023-12-20T00:04:04;269.08;;;176.80;;
60314;SDS011;46159;42.550;21.904;2023-12-20T00:06:30;258.02;;;171.52;;
60314;SDS011;46159;42.550;21.904;2023-12-20T00:08:56;248.95;;;162.95;;
60314;SDS011;46159;42.550;21.904;2023-12-20T00:11:25;270.90;;;176.10;;
60314;SDS011;46159;42.550;21.904;2023-12-20T00:13:51;285.77;;;184.88;;
60314;SDS011;46159;42.550;21.904;2023-12-20T00:16:18;252.65;;;162.18;;
60314;SDS011;46159;42.550;21.904;2023-12-20T00:18:44;248.48;;;166.82;;
60314;SDS011;46159;42.550;21.904;2023-12-20T00:21:10;269.88;;;160.75;;
60314;SDS011;46159;42.550;21.904;2023-12-20T00:23:36;330.42;;;179.52;;
60314;SDS011;46159;42.550;21.904;2023-12-20T00:26:02;282.13;;;164.65;;
60314;SDS011;46159;42.550;21.904;2023-12-20T00:28:28;334.63;;;187.63;;
60314;SDS011;46159;42.550;21.904;2023-12-20T00:30:55;361.05;;;210.00;;
60314;SDS011;46159;42.550;21.904;2023-12-20T00:33:21;412.38;;;220.32;;
60314;SDS011;46159;42.550;21.904;2023-12-20T00:35:47;453.02;;;215.80;;
60314;SDS011;46159;42.550;21.904;2023-12-20T00:38:13;349.58;;;173.75;;
60314;SDS011;46159;42.550;21.904;2023-12-20T00:40:39;362.38;;;159.20;;
60314;SDS011;46159;42.550;21.904;2023-12-20T00:43:06;541.47;;;170.75;;
60314;SDS011;46159;42.550;21.904;2023-12-20T00:45:32;566.00;;;188.02;;
60314;SDS011;46159;42.550;21.904;2023-12-20T00:47:58;711.97;;;236.30;;
60314;SDS011;46159;42.550;21.904;2023-12-20T00:50:24;538.90;;;206.10;;
60314;SDS011;46159;42.550;21.904;2023-12-20T00:52:50;843.53;;;269.05;;
60314;SDS011;46159;42.550;21.904;2023-12-20T00:55:16;790.78;;;240.02;;
60314;SDS011;46159;42.550;21.904;2023-12-20T00:57:42;652.70;;;203.25;;
60314;SDS011;46159;42.550;21.904;2023-12-20T01:00:08;832.88;;;227.80;;
60314;SDS011;46159;42.550;21.904;2023-12-20T01:02:35;652.70;;;196.23;;
60314;SDS011;46159;42.550;21.904;2023-12-20T01:05:01;600.55;;;180.95;;
60314;SDS011;46159;42.550;21.904;2023-12-20T01:07:27;472.05;;;179.32;;
60314;SDS011;46159;42.550;21.904;2023-12-20T01:09:54;526.30;;;195.00;;
60314;SDS011;46159;42.550;21.904;2023-12-20T01:12:20;731.80;;;229.82;;
60314;SDS011;46159;42.550;21.904;2023-12-20T01:14:46;633.28;;;225.32;;
60314;SDS011;46159;42.550;21.904;2023-12-20T01:17:12;410.70;;;184.63;;
60314;SDS011;46159;42.550;21.904;2023-12-20T01:19:38;310.75;;;157.43;;
60314;SDS011;46159;42.550;21.904;2023-12-20T01:22:04;291.95;;;155.82;;
60314;SDS011;46159;42.550;21.904;2023-12-20T01:24:30;246.98;;;145.70;;
60314;SDS011;46159;42.550;21.904;2023-12-20T01:26:56;249.52;;;147.57;;
60314;SDS011;46159;42.550;21.904;2023-12-20T01:29:23;340.35;;;188.60;;
60314;SDS011;46159;42.550;21.904;2023-12-20T01:31:49;357.33;;;184.23;;
60314;SDS011;46159;42.550;21.904;2023-12-20T01:34:15;394.92;;;210.98;;
60314;SDS011;46159;42.550;21.904;2023-12-20T01:36:41;365.00;;;198.57;;
60314;SDS011;46159;42.550;21.904;2023-12-20T01:39:07;297.77;;;171.48;;
60314;SDS011;46159;42.550;21.904;2023-12-20T01:41:33;269.98;;;158.80;;
60314;SDS011;46159;42.550;21.904;2023-12-20T01:43:59;287.23;;;170.52;;
60314;SDS011;46159;42.550;21.904;2023-12-20T01:46:25;259.52;;;157.13;;
60314;SDS011;46159;42.550;21.904;2023-12-20T01:48:52;270.30;;;164.88;;
60314;SDS011;46159;42.550;21.904;2023-12-20T01:51:18;314.92;;;181.88;;
60314;SDS011;46159;42.550;21.904;2023-12-20T01:53:45;274.75;;;162.15;;
60314;SDS011;46159;42.550;21.904;2023-12-20T01:56:12;274.13;;;163.85;;
60314;SDS011;46159;42.550;21.904;2023-12-20T01:58:39;253.75;;;150.43;;
60314;SDS011;46159;42.550;21.904;2023-12-20T02:01:09;241.18;;;146.15;;
60314;SDS011;46159;42.550;21.904;2023-12-20T02:03:35;273.33;;;159.68;;
60314;SDS011;46159;42.550;21.904;2023-12-20T02:06:02;250.43;;;152.02;;
60314;SDS011;46159;42.550;21.904;2023-12-20T02:08:28;284.92;;;166.45;;
60314;SDS011;46159;42.550;21.904;2023-12-20T02:10:54;295.90;;;174.55;;
60314;SDS011;46159;42.550;21.904;2023-12-20T02:13:21;322.23;;;183.73;;
60314;SDS011;46159;42.550;21.904;2023-12-20T02:15:47;350.48;;;197.63;;
60314;SDS011;46159;42.550;21.904;2023-12-20T02:18:13;385.90;;;199.00;;
60314;SDS011;46159;42.550;21.904;2023-12-20T02:20:41;350.77;;;189.43;;
60314;SDS011;46159;42.550;21.904;2023-12-20T02:23:07;377.27;;;200.50;;
60314;SDS011;46159;42.550;21.904;2023-12-20T02:25:34;369.48;;;203.98;;
60314;SDS011;46159;42.550;21.904;2023-12-20T02:28:00;308.80;;;171.65;;
60314;SDS011;46159;42.550;21.904;2023-12-20T02:30:27;301.90;;;169.27;;
60314;SDS011;46159;42.550;21.904;2023-12-20T02:32:53;331.27;;;179.55;;
60314;SDS011;46159;42.550;21.904;2023-12-20T02:35:19;564.83;;;192.82;;
60314;SDS011;46159;42.550;21.904;2023-12-20T02:37:45;396.92;;;182.48;;
60314;SDS011;46159;42.550;21.904;2023-12-20T02:40:11;507.10;;;209.38;;
60314;SDS011;46159;42.550;21.904;2023-12-20T02:42:37;716.50;;;239.10;;
60314;SDS011;46159;42.550;21.904;2023-12-20T02:45:04;426.77;;;182.25;;
60314;SDS011;46159;42.550;21.904;2023-12-20T02:47:31;501.02;;;205.50;;
60314;SDS011;46159;42.550;21.904;2023-12-20T02:49:57;608.97;;;238.95;;
60314;SDS011;46159;42.550;21.904;2023-12-20T02:52:23;653.72;;;260.23;;
60314;SDS011;46159;42.550;21.904;2023-12-20T02:54:51;739.22;;;260.92;;
60314;SDS011;46159;42.550;21.904;2023-12-20T02:57:17;729.53;;;249.23;;
60314;SDS011;46159;42.550;21.904;2023-12-20T02:59:43;597.47;;;214.00;;
60314;SDS011;46159;42.550;21.904;2023-12-20T03:02:09;586.58;;;195.32;;
60314;SDS011;46159;42.550;21.904;2023-12-20T03:04:35;441.63;;;175.85;;
60314;SDS011;46159;42.550;21.904;2023-12-20T03:07:01;436.75;;;170.75;;
60314;SDS011;46159;42.550;21.904;2023-12-20T03:09:27;469.30;;;201.77;;
60314;SDS011;46159;42.550;21.904;2023-12-20T03:11:53;435.85;;;203.98;;
60314;SDS011;46159;42.550;21.904;2023-12-20T03:14:19;409.58;;;202.48;;
60314;SDS011;46159;42.550;21.904;2023-12-20T03:16:49;420.15;;;207.57;;
60314;SDS011;46159;42.550;21.904;2023-12-20T03:19:16;370.70;;;185.98;;
60314;SDS011;46159;42.550;21.904;2023-12-20T03:21:42;359.92;;;185.57;;
60314;SDS011;46159;42.550;21.904;2023-12-20T03:24:08;342.33;;;182.23;;
60314;SDS011;46159;42.550;21.904;2023-12-20T03:26:34;339.92;;;176.57;;
60314;SDS011;46159;42.550;21.904;2023-12-20T03:29:00;292.55;;;151.48;;
60314;SDS011;46159;42.550;21.904;2023-12-20T03:31:26;273.73;;;142.02;;
60314;SDS011;46159;42.550;21.904;2023-12-20T03:33:52;276.42;;;149.73;;
60314;SDS011;46159;42.550;21.904;2023-12-20T03:36:19;287.75;;;148.90;;
60314;SDS011;46159;42.550;21.904;2023-12-20T03:38:45;248.93;;;130.75;;
60314;SDS011;46159;42.550;21.904;2023-12-20T03:41:11;242.40;;;135.77;;
60314;SDS011;46159;42.550;21.904;2023-12-20T03:43:37;248.23;;;135.57;;
60314;SDS011;46159;42.550;21.904;2023-12-20T03:46:03;242.15;;;133.18;;
60314;SDS011;46159;42.550;21.904;2023-12-20T03:48:30;233.50;;;124.47;;
60314;SDS011;46159;42.550;21.904;2023-12-20T03:50:56;253.05;;;130.90;;
60314;SDS011;46159;42.550;21.904;2023-12-20T03:53:23;398.33;;;146.35;;
60314;SDS011;46159;42.550;21.904;2023-12-20T03:55:49;352.75;;;138.88;;
60314;SDS011;46159;42.550;21.904;2023-12-20T03:58:15;398.05;;;143.90;;
60314;SDS011;46159;42.550;21.904;2023-12-20T04:00:41;421.98;;;144.23;;
60314;SDS011;46159;42.550;21.904;2023-12-20T04:03:07;388.13;;;130.50;;
60314;SDS011;46159;42.550;21.904;2023-12-20T04:05:33;404.17;;;136.10;;
60314;SDS011;46159;42.550;21.904;2023-12-20T04:08:00;418.27;;;141.10;;
60314;SDS011;46159;42.550;21.904;2023-12-20T04:10:26;505.33;;;149.93;;
60314;SDS011;46159;42.550;21.904;2023-12-20T04:12:53;448.23;;;133.73;;
60314;SDS011;46159;42.550;21.904;2023-12-20T04:15:20;441.77;;;138.57;;
60314;SDS011;46159;42.550;21.904;2023-12-20T04:17:46;479.67;;;146.70;;
60314;SDS011;46159;42.550;21.904;2023-12-20T04:20:12;417.75;;;141.50;;
60314;SDS011;46159;42.550;21.904;2023-12-20T04:22:38;339.00;;;124.22;;
60314;SDS011;46159;42.550;21.904;2023-12-20T04:25:04;434.90;;;136.13;;
60314;SDS011;46159;42.550;21.904;2023-12-20T04:27:30;363.35;;;129.02;;
60314;SDS011;46159;42.550;21.904;2023-12-20T04:29:56;511.00;;;164.43;;
60314;SDS011;46159;42.550;21.904;2023-12-20T04:32:22;347.50;;;136.60;;
60314;SDS011;46159;42.550;21.904;2023-12-20T04:34:48;335.55;;;142.48;;
60314;SDS011;46159;42.550;21.904;2023-12-20T04:37:15;294.60;;;131.18;;
60314;SDS011;46159;42.550;21.904;2023-12-20T04:39:41;301.55;;;136.73;;
60314;SDS011;46159;42.550;21.904;2023-12-20T04:42:07;278.38;;;125.65;;
60314;SDS011;46159;42.550;21.904;2023-12-20T04:44:33;291.23;;;128.30;;
60314;SDS011;46159;42.550;21.904;2023-12-20T04:47:00;321.92;;;136.55;;
60314;SDS011;46159;42.550;21.904;2023-12-20T04:49:26;275.67;;;124.10;;
60314;SDS011;46159;42.550;21.904;2023-12-20T04:51:52;231.48;;;110.70;;
60314;SDS011;46159;42.550;21.904;2023-12-20T04:54:18;243.63;;;108.15;;
60314;SDS011;46159;42.550;21.904;2023-12-20T04:56:44;238.85;;;108.85;;
60314;SDS011;46159;42.550;21.904;2023-12-20T04:59:10;211.93;;;95.57;;
60314;SDS011;46159;42.550;21.904;2023-12-20T05:01:36;255.80;;;90.63;;
60314;SDS011;46159;42.550;21.904;2023-12-20T05:04:02;163.65;;;79.03;;
60314;SDS011;46159;42.550;21.904;2023-12-20T05:06:29;217.07;;;91.82;;
60314;SDS011;46159;42.550;21.904;2023-12-20T05:08:55;187.43;;;86.38;;
60314;SDS011;46159;42.550;21.904;2023-12-20T05:11:21;185.65;;;94.28;;
60314;SDS011;46159;42.550;21.904;2023-12-20T05:13:47;176.82;;;87.72;;
60314;SDS011;46159;42.550;21.904;2023-12-20T05:16:13;190.00;;;93.90;;
60314;SDS011;46159;42.550;21.904;2023-12-20T05:18:39;204.35;;;97.88;;
60314;SDS011;46159;42.550;21.904;2023-12-20T05:21:05;197.90;;;95.88;;
60314;SDS011;46159;42.550;21.904;2023-12-20T05:23:32;195.20;;;93.60;;
60314;SDS011;46159;42.550;21.904;2023-12-20T05:25:58;204.57;;;103.97;;
60314;SDS011;46159;42.550;21.904;2023-12-20T05:28:24;217.13;;;100.90;;
60314;SDS011;46159;42.550;21.904;2023-12-20T05:30:50;195.23;;;99.28;;
60314;SDS011;46159;42.550;21.904;2023-12-20T05:33:17;197.13;;;99.35;;
60314;SDS011;46159;42.550;21.904;2023-12-20T05:35:50;192.32;;;96.43;;
60314;SDS011;46159;42.550;21.904;2023-12-20T05:38:16;204.93;;;104.18;;
60314;SDS011;46159;42.550;21.904;2023-12-20T05:40:42;199.85;;;105.88;;
60314;SDS011;46159;42.550;21.904;2023-12-20T05:43:08;188.75;;;97.70;;
60314;SDS011;46159;42.550;21.904;2023-12-20T05:45:34;198.07;;;102.57;;
60314;SDS011;46159;42.550;21.904;2023-12-20T05:48:00;212.60;;;102.22;;
60314;SDS011;46159;42.550;21.904;2023-12-20T05:50:26;206.20;;;105.72;;
60314;SDS011;46159;42.550;21.904;2023-12-20T05:52:52;181.02;;;99.07;;
60314;SDS011;46159;42.550;21.904;2023-12-20T05:55:19;193.10;;;99.88;;
60314;SDS011;46159;42.550;21.904;2023-12-20T05:57:48;181.30;;;92.30;;
60314;SDS011;46159;42.550;21.904;2023-12-20T06:00:21;245.40;;;125.10;;
60314;SDS011;46159;42.550;21.904;2023-12-20T06:02:47;194.45;;;102.32;;
60314;SDS011;46159;42.550;21.904;2023-12-20T06:05:13;193.02;;;106.03;;
60314;SDS011;46159;42.550;21.904;2023-12-20T06:07:39;201.50;;;106.85;;
60314;SDS011;46159;42.550;21.904;2023-12-20T06:10:05;205.23;;;106.55;;
60314;SDS011;46159;42.550;21.904;2023-12-20T06:12:31;218.52;;;124.18;;
60314;SDS011;46159;42.550;21.904;2023-12-20T06:15:00;196.48;;;115.75;;
60314;SDS011;46159;42.550;21.904;2023-12-20T06:17:26;145.75;;;86.07;;
60314;SDS011;46159;42.550;21.904;2023-12-20T06:19:55;136.18;;;78.38;;
60314;SDS011;46159;42.550;21.904;2023-12-20T06:22:21;122.55;;;74.53;;
60314;SDS011;46159;42.550;21.904;2023-12-20T06:24:47;117.05;;;64.10;;
60314;SDS011;46159;42.550;21.904;2023-12-20T06:27:13;143.90;;;70.00;;
60314;SDS011;46159;42.550;21.904;2023-12-20T06:29:39;178.23;;;70.82;;
60314;SDS011;46159;42.550;21.904;2023-12-20T06:32:06;289.30;;;70.38;;
60314;SDS011;46159;42.550;21.904;2023-12-20T06:34:32;123.82;;;60.08;;
60314;SDS011;46159;42.550;21.904;2023-12-20T06:36:58;181.10;;;79.60;;
60314;SDS011;46159;42.550;21.904;2023-12-20T06:39:24;154.57;;;70.30;;
60314;SDS011;46159;42.550;21.904;2023-12-20T06:41:50;221.10;;;91.30;;
60314;SDS011;46159;42.550;21.904;2023-12-20T06:44:17;193.73;;;87.40;;
60314;SDS011;46159;42.550;21.904;2023-12-20T06:46:43;219.23;;;101.85;;
60314;SDS011;46159;42.550;21.904;2023-12-20T06:49:09;231.98;;;106.18;;
60314;SDS011;46159;42.550;21.904;2023-12-20T06:51:35;235.88;;;107.57;;
60314;SDS011;46159;42.550;21.904;2023-12-20T06:54:01;189.38;;;96.35;;
60314;SDS011;46159;42.550;21.904;2023-12-20T06:56:27;198.32;;;94.05;;
60314;SDS011;46159;42.550;21.904;2023-12-20T06:58:53;175.43;;;89.75;;
60314;SDS011;46159;42.550;21.904;2023-12-20T07:01:19;195.40;;;93.00;;
60314;SDS011;46159;42.550;21.904;2023-12-20T07:03:46;186.68;;;93.68;;
60314;SDS011;46159;42.550;21.904;2023-12-20T07:06:12;183.40;;;96.30;;
60314;SDS011;46159;42.550;21.904;2023-12-20T07:08:40;179.45;;;92.93;;
60314;SDS011;46159;42.550;21.904;2023-12-20T07:11:06;193.73;;;101.15;;
60314;SDS011;46159;42.550;21.904;2023-12-20T07:13:32;196.68;;;101.85;;
60314;SDS011;46159;42.550;21.904;2023-12-20T07:15:58;187.63;;;95.63;;
60314;SDS011;46159;42.550;21.904;2023-12-20T07:18:24;180.95;;;91.20;;
60314;SDS011;46159;42.550;21.904;2023-12-20T07:20:51;175.73;;;91.93;;
60314;SDS011;46159;42.550;21.904;2023-12-20T07:23:17;178.18;;;92.05;;
60314;SDS011;46159;42.550;21.904;2023-12-20T07:25:44;186.48;;;92.95;;
60314;SDS011;46159;42.550;21.904;2023-12-20T07:28:10;169.75;;;89.40;;
60314;SDS011;46159;42.550;21.904;2023-12-20T07:30:36;167.85;;;90.18;;
60314;SDS011;46159;42.550;21.904;2023-12-20T07:33:03;175.20;;;92.40;;
60314;SDS011;46159;42.550;21.904;2023-12-20T07:35:29;177.75;;;94.13;;
60314;SDS011;46159;42.550;21.904;2023-12-20T07:37:55;196.60;;;105.20;;
60314;SDS011;46159;42.550;21.904;2023-12-20T07:40:21;201.15;;;108.70;;
60314;SDS011;46159;42.550;21.904;2023-12-20T07:42:48;202.32;;;110.13;;
60314;SDS011;46159;42.550;21.904;2023-12-20T07:45:15;210.20;;;119.93;;
60314;SDS011;46159;42.550;21.904;2023-12-20T07:47:41;231.68;;;125.03;;
60314;SDS011;46159;42.550;21.904;2023-12-20T07:50:07;231.07;;;127.35;;
60314;SDS011;46159;42.550;21.904;2023-12-20T07:52:33;234.05;;;135.48;;
60314;SDS011;46159;42.550;21.904;2023-12-20T07:54:59;244.00;;;136.77;;
60314;SDS011;46159;42.550;21.904;2023-12-20T07:57:28;280.05;;;160.50;;
60314;SDS011;46159;42.550;21.904;2023-12-20T07:59:55;307.48;;;177.43;;
60314;SDS011;46159;42.550;21.904;2023-12-20T08:02:21;289.73;;;168.20;;
60314;SDS011;46159;42.550;21.904;2023-12-20T08:04:47;285.63;;;173.75;;
60314;SDS011;46159;42.550;21.904;2023-12-20T08:07:13;270.48;;;161.32;;
60314;SDS011;46159;42.550;21.904;2023-12-20T08:09:39;285.80;;;171.80;;
60314;SDS011;46159;42.550;21.904;2023-12-20T08:12:05;307.17;;;183.98;;
60314;SDS011;46159;42.550;21.904;2023-12-20T08:14:31;321.80;;;202.30;;
60314;SDS011;46159;42.550;21.904;2023-12-20T08:16:57;322.20;;;200.20;;
60314;SDS011;46159;42.550;21.904;2023-12-20T08:19:24;345.90;;;217.98;;
60314;SDS011;46159;42.550;21.904;2023-12-20T08:21:50;347.67;;;225.52;;
60314;SDS011;46159;42.550;21.904;2023-12-20T08:24:16;353.02;;;226.00;;
60314;SDS011;46159;42.550;21.904;2023-12-20T08:26:42;345.63;;;222.48;;
60314;SDS011;46159;42.550;21.904;2023-12-20T08:29:08;410.75;;;262.13;;
60314;SDS011;46159;42.550;21.904;2023-12-20T08:31:34;404.27;;;271.85;;
60314;SDS011;46159;42.550;21.904;2023-12-20T08:34:00;403.70;;;274.55;;
60314;SDS011;46159;42.550;21.904;2023-12-20T08:36:26;403.83;;;269.60;;
60314;SDS011;46159;42.550;21.904;2023-12-20T08:38:52;399.67;;;256.75;;
60314;SDS011;46159;42.550;21.904;2023-12-20T08:41:20;383.75;;;255.65;;
60314;SDS011;46159;42.550;21.904;2023-12-20T08:43:48;345.45;;;228.73;;
60314;SDS011;46159;42.550;21.904;2023-12-20T08:46:14;328.67;;;212.55;;
60314;SDS011;46159;42.550;21.904;2023-12-20T08:48:41;304.45;;;186.98;;
60314;SDS011;46159;42.550;21.904;2023-12-20T08:51:07;278.40;;;175.65;;
60314;SDS011;46159;42.550;21.904;2023-12-20T08:53:36;267.90;;;160.43;;
60314;SDS011;46159;42.550;21.904;2023-12-20T08:56:03;258.40;;;153.68;;
60314;SDS011;46159;42.550;21.904;2023-12-20T08:58:30;267.17;;;156.40;;
60314;SDS011;46159;42.550;21.904;2023-12-20T09:00:56;262.65;;;159.52;;
60314;SDS011;46159;42.550;21.904;2023-12-20T09:03:22;261.90;;;153.60;;
60314;SDS011;46159;42.550;21.904;2023-12-20T09:05:48;267.38;;;160.55;;
60314;SDS011;46159;42.550;21.904;2023-12-20T09:08:14;268.80;;;161.40;;
60314;SDS011;46159;42.550;21.904;2023-12-20T09:10:40;265.25;;;162.25;;
60314;SDS011;46159;42.550;21.904;2023-12-20T09:13:06;255.98;;;162.35;;
60314;SDS011;46159;42.550;21.904;2023-12-20T09:15:32;261.67;;;164.05;;
60314;SDS011;46159;42.550;21.904;2023-12-20T09:17:59;288.85;;;165.13;;
60314;SDS011;46159;42.550;21.904;2023-12-20T09:20:25;273.42;;;164.48;;
60314;SDS011;46159;42.550;21.904;2023-12-20T09:22:52;267.00;;;162.65;;
60314;SDS011;46159;42.550;21.904;2023-12-20T09:25:18;268.88;;;165.05;;
60314;SDS011;46159;42.550;21.904;2023-12-20T09:27:45;277.30;;;171.52;;
60314;SDS011;46159;42.550;21.904;2023-12-20T09:30:11;274.92;;;169.68;;
60314;SDS011;46159;42.550;21.904;2023-12-20T09:32:37;272.27;;;167.23;;
60314;SDS011;46159;42.550;21.904;2023-12-20T09:35:04;258.02;;;162.15;;
60314;SDS011;46159;42.550;21.904;2023-12-20T09:37:31;259.42;;;169.90;;
60314;SDS011;46159;42.550;21.904;2023-12-20T09:39:58;284.33;;;170.57;;
60314;SDS011;46159;42.550;21.904;2023-12-20T09:42:42;260.67;;;168.32;;
60314;SDS011;46159;42.550;21.904;2023-12-20T09:45:12;254.85;;;162.23;;
60314;SDS011;46159;42.550;21.904;2023-12-20T09:47:42;271.35;;;165.57;;
60314;SDS011;46159;42.550;21.904;2023-12-20T09:50:09;251.25;;;163.07;;
60314;SDS011;46159;42.550;21.904;2023-12-20T09:52:36;254.18;;;160.48;;
60314;SDS011;46159;42.550;21.904;2023-12-20T09:55:03;253.77;;;170.27;;
60314;SDS011;46159;42.550;21.904;2023-12-20T09:57:31;268.13;;;170.73;;
60314;SDS011;46159;42.550;21.904;2023-12-20T09:59:57;268.90;;;173.20;;
60314;SDS011;46159;42.550;21.904;2023-12-20T10:02:25;239.68;;;156.00;;
60314;SDS011;46159;42.550;21.904;2023-12-20T10:04:52;231.38;;;148.15;;
60314;SDS011;46159;42.550;21.904;2023-12-20T10:07:18;234.95;;;148.40;;
60314;SDS011;46159;42.550;21.904;2023-12-20T10:09:44;221.43;;;145.90;;
60314;SDS011;46159;42.550;21.904;2023-12-20T10:12:11;235.02;;;147.35;;
60314;SDS011;46159;42.550;21.904;2023-12-20T10:14:38;228.75;;;149.95;;
60314;SDS011;46159;42.550;21.904;2023-12-20T10:17:05;232.30;;;151.50;;
60314;SDS011;46159;42.550;21.904;2023-12-20T10:19:32;211.38;;;140.70;;
60314;SDS011;46159;42.550;21.904;2023-12-20T10:22:03;202.98;;;136.00;;
60314;SDS011;46159;42.550;21.904;2023-12-20T10:24:29;169.48;;;112.45;;
60314;SDS011;46159;42.550;21.904;2023-12-20T10:27:05;198.55;;;134.20;;
60314;SDS011;46159;42.550;21.904;2023-12-20T10:29:37;204.15;;;138.45;;
60314;SDS011;46159;42.550;21.904;2023-12-20T10:32:23;215.52;;;147.35;;
60314;SDS011;46159;42.550;21.904;2023-12-20T10:34:49;224.30;;;145.68;;
60314;SDS011;46159;42.550;21.904;2023-12-20T10:37:15;156.43;;;103.22;;
60314;SDS011;46159;42.550;21.904;2023-12-20T10:39:52;124.75;;;85.45;;
60314;SDS011;46159;42.550;21.904;2023-12-20T10:42:21;153.95;;;100.30;;
60314;SDS011;46159;42.550;21.904;2023-12-20T10:44:48;167.43;;;109.13;;
60314;SDS011;46159;42.550;21.904;2023-12-20T10:47:16;162.32;;;109.80;;
60314;SDS011;46159;42.550;21.904;2023-12-20T10:49:42;169.30;;;110.90;;
60314;SDS011;46159;42.550;21.904;2023-12-20T10:52:09;158.68;;;112.47;;
60314;SDS011;46159;42.550;21.904;2023-12-20T10:54:38;187.38;;;129.07;;
60314;SDS011;46159;42.550;21.904;2023-12-20T10:57:05;190.65;;;129.13;;
60314;SDS011;46159;42.550;21.904;2023-12-20T10:59:33;152.88;;;112.43;;
60314;SDS011;46159;42.550;21.904;2023-12-20T11:01:59;141.70;;;99.00;;
60314;SDS011;46159;42.550;21.904;2023-12-20T11:04:28;123.55;;;86.55;;
60314;SDS011;46159;42.550;21.904;2023-12-20T11:07:32;120.25;;;81.70;;
60314;SDS011;46159;42.550;21.904;2023-12-20T11:09:54;119.95;;;78.72;;
60314;SDS011;46159;42.550;21.904;2023-12-20T11:12:28;108.55;;;77.57;;
60314;SDS011;46159;42.550;21.904;2023-12-20T11:14:58;103.35;;;71.07;;
60314;SDS011;46159;42.550;21.904;2023-12-20T11:17:29;110.13;;;77.57;;
60314;SDS011;46159;42.550;21.904;2023-12-20T11:22:21;117.60;;;80.53;;
60314;SDS011;46159;42.550;21.904;2023-12-20T11:24:48;111.75;;;75.00;;
60314;SDS011;46159;42.550;21.904;2023-12-20T11:27:14;112.20;;;75.90;;
60314;SDS011;46159;42.550;21.904;2023-12-20T11:29:41;113.65;;;71.93;;
60314;SDS011;46159;42.550;21.904;2023-12-20T11:37:22;127.82;;;79.25;;
60314;SDS011;46159;42.550;21.904;2023-12-20T11:39:55;113.85;;;83.95;;
60314;SDS011;46159;42.550;21.904;2023-12-20T11:42:24;104.32;;;72.35;;
60314;SDS011;46159;42.550;21.904;2023-12-20T11:44:50;108.05;;;72.30;;
60314;SDS011;46159;42.550;21.904;2023-12-20T11:47:17;108.03;;;68.70;;
60314;SDS011;46159;42.550;21.904;2023-12-20T11:49:44;97.30;;;64.82;;
60314;SDS011;46159;42.550;21.904;2023-12-20T11:52:11;103.00;;;68.25;;
60314;SDS011;46159;42.550;21.904;2023-12-20T11:54:38;100.78;;;69.97;;
60314;SDS011;46159;42.550;21.904;2023-12-20T11:57:04;108.10;;;78.55;;
60314;SDS011;46159;42.550;21.904;2023-12-20T11:59:30;110.18;;;77.80;;
60314;SDS011;46159;42.550;21.904;2023-12-20T12:01:56;106.38;;;74.55;;
60314;SDS011;46159;42.550;21.904;2023-12-20T12:04:26;126.53;;;76.45;;
60314;SDS011;46159;42.550;21.904;2023-12-20T12:06:53;121.05;;;76.50;;
60314;SDS011;46159;42.550;21.904;2023-12-20T12:09:19;101.05;;;68.00;;
60314;SDS011;46159;42.550;21.904;2023-12-20T12:11:45;75.05;;;48.50;;
60314;SDS011;46159;42.550;21.904;2023-12-20T12:14:11;67.78;;;46.53;;
60314;SDS011;46159;42.550;21.904;2023-12-20T12:16:37;82.90;;;47.80;;
60314;SDS011;46159;42.550;21.904;2023-12-20T12:19:03;87.45;;;50.25;;
60314;SDS011;46159;42.550;21.904;2023-12-20T12:21:29;94.15;;;52.35;;
60314;SDS011;46159;42.550;21.904;2023-12-20T12:24:19;100.95;;;50.83;;
60314;SDS011;46159;42.550;21.904;2023-12-20T12:26:42;95.53;;;53.17;;
60314;SDS011;46159;42.550;21.904;2023-12-20T12:29:08;88.38;;;56.75;;
60314;SDS011;46159;42.550;21.904;2023-12-20T12:31:34;75.00;;;49.53;;
60314;SDS011;46159;42.550;21.904;2023-12-20T12:34:01;73.18;;;51.53;;
60314;SDS011;46159;42.550;21.904;2023-12-20T12:36:27;90.38;;;58.47;;
60314;SDS011;46159;42.550;21.904;2023-12-20T12:38:56;118.05;;;63.83;;
60314;SDS011;46159;42.550;21.904;2023-12-20T12:41:22;91.43;;;64.63;;
60314;SDS011;46159;42.550;21.904;2023-12-20T12:43:48;105.47;;;69.75;;
60314;SDS011;46159;42.550;21.904;2023-12-20T12:46:15;87.35;;;59.15;;
60314;SDS011;46159;42.550;21.904;2023-12-20T12:48:41;96.15;;;67.40;;
60314;SDS011;46159;42.550;21.904;2023-12-20T12:51:07;99.28;;;65.45;;
60314;SDS011;46159;42.550;21.904;2023-12-20T12:53:37;103.40;;;68.18;;
60314;SDS011;46159;42.550;21.904;2023-12-20T12:56:03;105.22;;;64.78;;
60314;SDS011;46159;42.550;21.904;2023-12-20T12:58:29;91.53;;;64.25;;
60314;SDS011;46159;42.550;21.904;2023-12-20T13:00:56;99.13;;;66.80;;
60314;SDS011;46159;42.550;21.904;2023-12-20T13:03:22;92.55;;;65.65;;
60314;SDS011;46159;42.550;21.904;2023-12-20T13:05:48;89.97;;;60.15;;
60314;SDS011;46159;42.550;21.904;2023-12-20T13:08:14;83.93;;;57.67;;
60314;SDS011;46159;42.550;21.904;2023-12-20T13:10:41;75.85;;;48.03;;
60314;SDS011;46159;42.550;21.904;2023-12-20T13:13:07;84.35;;;48.67;;
60314;SDS011;46159;42.550;21.904;2023-12-20T13:15:33;74.65;;;51.55;;
60314;SDS011;46159;42.550;21.904;2023-12-20T13:17:59;90.18;;;52.55;;
60314;SDS011;46159;42.550;21.904;2023-12-20T13:20:25;78.20;;;52.38;;
60314;SDS011;46159;42.550;21.904;2023-12-20T13:22:51;64.70;;;44.35;;
60314;SDS011;46159;42.550;21.904;2023-12-20T13:25:17;67.38;;;43.97;;
60314;SDS011;46159;42.550;21.904;2023-12-20T13:27:43;61.03;;;41.03;;
60314;SDS011;46159;42.550;21.904;2023-12-20T13:30:09;121.75;;;47.95;;
60314;SDS011;46159;42.550;21.904;2023-12-20T13:32:35;62.60;;;39.05;;
60314;SDS011;46159;42.550;21.904;2023-12-20T13:35:02;74.18;;;40.88;;
60314;SDS011;46159;42.550;21.904;2023-12-20T13:37:29;63.85;;;41.72;;
60314;SDS011;46159;42.550;21.904;2023-12-20T13:39:55;97.18;;;41.35;;
60314;SDS011;46159;42.550;21.904;2023-12-20T13:42:21;65.78;;;40.53;;
60314;SDS011;46159;42.550;21.904;2023-12-20T13:44:47;78.28;;;43.05;;
60314;SDS011;46159;42.550;21.904;2023-12-20T13:47:13;55.67;;;40.72;;
60314;SDS011;46159;42.550;21.904;2023-12-20T13:49:39;87.40;;;50.58;;
60314;SDS011;46159;42.550;21.904;2023-12-20T13:52:05;121.93;;;56.17;;
60314;SDS011;46159;42.550;21.904;2023-12-20T13:54:32;80.30;;;44.72;;
60314;SDS011;46159;42.550;21.904;2023-12-20T13:56:58;70.95;;;46.50;;